Time;durP1;ratioP1;P1;durP2;ratioP2;P2;SDS_P1;SDS_P2;PMS_P1;PMS_P2;Temp;Humidity;BMP_temperature;BMP_pressure;BME280_temperature;BME280_humidity;BME280_pressure;Samples;Min_cycle;Max_cycle;Signal;HPM_P1;HPM_P2
2023/12/30 00:02:18;;;;;;;23.45;13.13;;;;;;;;;;5142603;27;20039;-75
2023/12/30 00:04:44;;;;;;;26.88;14.80;;;;;;;;;;5142063;27;20440;-73
2023/12/30 00:07:11;;;;;;;24.38;13.55;;;;;;;;;;5141631;27;20043;-74
2023/12/30 00:09:37;;;;;;;21.73;11.88;;;;;;;;;;5141934;27;20039;-73
2023/12/30 00:12:05;;;;;;;19.17;11.48;;;;;;;;;;5142071;27;20327;-74
2023/12/30 00:14:31;;;;;;;22.80;13.70;;;;;;;;;;5142924;27;20158;-73
2023/12/30 00:16:58;;;;;;;24.88;14.40;;;;;;;;;;5142795;27;20088;-73
2023/12/30 00:19:25;;;;;;;22.02;13.20;;;;;;;;;;5143013;27;20047;-74
2023/12/30 00:21:52;;;;;;;21.23;12.73;;;;;;;;;;5142410;27;20044;-74
2023/12/30 00:24:19;;;;;;;23.65;12.98;;;;;;;;;;5141302;27;20126;-74
2023/12/30 00:26:46;;;;;;;18.63;11.60;;;;;;;;;;5141618;27;20066;-73
2023/12/30 00:29:12;;;;;;;21.52;12.57;;;;;;;;;;5137643;27;20464;-74
2023/12/30 00:31:39;;;;;;;20.85;12.93;;;;;;;;;;5112523;27;20159;-73
2023/12/30 00:34:06;;;;;;;18.50;11.55;;;;;;;;;;5131174;27;20047;-74
2023/12/30 00:36:33;;;;;;;19.75;11.20;;;;;;;;;;5130731;27;20054;-73
2023/12/30 00:39:00;;;;;;;20.27;12.40;;;;;;;;;;5130459;27;20100;-73
2023/12/30 00:41:27;;;;;;;20.92;12.27;;;;;;;;;;5130455;27;20410;-73
2023/12/30 00:43:53;;;;;;;22.77;13.70;;;;;;;;;;5130779;27;20178;-74
2023/12/30 00:46:21;;;;;;;23.92;14.38;;;;;;;;;;5130244;27;20039;-72
2023/12/30 00:48:48;;;;;;;23.80;14.10;;;;;;;;;;5130440;27;20079;-73
2023/12/30 00:51:23;;;;;;;23.70;13.55;;;;;;;;;;5130683;27;20043;-73
2023/12/30 00:53:50;;;;;;;26.48;16.20;;;;;;;;;;5130663;27;20071;-72
2023/12/30 00:56:17;;;;;;;23.88;14.48;;;;;;;;;;5130830;27;20054;-74
2023/12/30 00:58:44;;;;;;;29.67;16.30;;;;;;;;;;5130616;27;20582;-73
2023/12/30 01:01:10;;;;;;;23.65;14.50;;;;;;;;;;5129885;27;20517;-74
2023/12/30 01:03:39;;;;;;;28.02;15.55;;;;;;;;;;5130407;27;20039;-73
2023/12/30 01:06:07;;;;;;;27.45;15.25;;;;;;;;;;5130495;27;20118;-74
2023/12/30 01:08:36;;;;;;;25.40;13.73;;;;;;;;;;5130313;27;20051;-73
2023/12/30 01:11:03;;;;;;;23.00;13.77;;;;;;;;;;5130361;27;20043;-73
2023/12/30 01:13:30;;;;;;;23.50;13.27;;;;;;;;;;5130111;27;20154;-74
2023/12/30 01:15:57;;;;;;;24.05;13.55;;;;;;;;;;5129806;27;20509;-74
2023/12/30 01:18:25;;;;;;;21.05;12.77;;;;;;;;;;5130153;27;20039;-73
2023/12/30 01:20:52;;;;;;;25.50;15.30;;;;;;;;;;5129660;27;20086;-74
2023/12/30 01:23:18;;;;;;;22.98;13.63;;;;;;;;;;5130571;27;20074;-73
2023/12/30 01:25:45;;;;;;;25.60;14.63;;;;;;;;;;5130016;28;20503;-73
2023/12/30 01:28:12;;;;;;;22.10;13.23;;;;;;;;;;5112026;28;20057;-74
2023/12/30 01:30:39;;;;;;;23.17;12.65;;;;;;;;;;5130088;28;20449;-73
2023/12/30 01:33:06;;;;;;;25.65;14.57;;;;;;;;;;5129949;28;20052;-74
2023/12/30 01:35:34;;;;;;;23.58;14.45;;;;;;;;;;5129726;27;20046;-74
2023/12/30 01:38:01;;;;;;;24.70;14.25;;;;;;;;;;5132733;27;20228;-74
2023/12/30 01:40:31;;;;;;;21.65;12.93;;;;;;;;;;5134013;27;20054;-74
2023/12/30 01:43:02;;;;;;;26.48;14.05;;;;;;;;;;5134074;27;20043;-74
2023/12/30 01:45:29;;;;;;;26.95;15.15;;;;;;;;;;5133887;27;20043;-74
2023/12/30 01:47:56;;;;;;;27.10;14.60;;;;;;;;;;5133781;27;20039;-73
2023/12/30 01:50:23;;;;;;;26.13;14.38;;;;;;;;;;5134315;27;20039;-74
2023/12/30 01:52:50;;;;;;;26.30;14.93;;;;;;;;;;5133612;27;20126;-74
2023/12/30 01:55:18;;;;;;;25.23;13.70;;;;;;;;;;5133529;27;20055;-73
2023/12/30 01:57:45;;;;;;;25.88;14.38;;;;;;;;;;5133764;27;20051;-73
2023/12/30 02:00:22;;;;;;;25.30;14.75;;;;;;;;;;5133593;27;20543;-73
2023/12/30 02:02:49;;;;;;;26.60;14.27;;;;;;;;;;5133607;27;20074;-73
2023/12/30 02:05:17;;;;;;;25.23;13.23;;;;;;;;;;5134037;27;20071;-74
2023/12/30 02:07:45;;;;;;;24.40;13.38;;;;;;;;;;5133847;27;20039;-74
2023/12/30 02:10:12;;;;;;;20.92;12.43;;;;;;;;;;5133254;27;20047;-73
2023/12/30 02:12:39;;;;;;;21.20;12.82;;;;;;;;;;5133012;27;20495;-73
2023/12/30 02:15:13;;;;;;;24.45;13.63;;;;;;;;;;5133033;27;20047;-72
2023/12/30 02:17:40;;;;;;;20.83;12.00;;;;;;;;;;5133608;27;20086;-74
2023/12/30 02:20:08;;;;;;;19.55;11.85;;;;;;;;;;5133388;27;20076;-73
2023/12/30 02:22:34;;;;;;;20.20;11.90;;;;;;;;;;5133366;27;20092;-73
2023/12/30 02:25:02;;;;;;;19.35;12.07;;;;;;;;;;5133385;27;20084;-73
2023/12/30 02:27:29;;;;;;;18.88;11.35;;;;;;;;;;5133545;27;20124;-74
2023/12/30 02:29:56;;;;;;;17.45;10.70;;;;;;;;;;5133390;27;20047;-74
2023/12/30 02:32:23;;;;;;;17.92;11.15;;;;;;;;;;5133376;27;20190;-72
2023/12/30 02:34:49;;;;;;;18.60;10.60;;;;;;;;;;5132998;27;20047;-73
2023/12/30 02:37:16;;;;;;;19.73;11.60;;;;;;;;;;5133448;27;20039;-73
2023/12/30 02:39:43;;;;;;;18.50;10.75;;;;;;;;;;5132964;27;20115;-73
2023/12/30 02:42:10;;;;;;;18.77;11.25;;;;;;;;;;5133220;27;20130;-74
2023/12/30 02:44:36;;;;;;;21.42;12.02;;;;;;;;;;5132935;27;20050;-73
2023/12/30 02:47:03;;;;;;;22.08;12.55;;;;;;;;;;5132738;27;20043;-73
2023/12/30 02:49:33;;;;;;;25.58;14.65;;;;;;;;;;5132336;27;20074;-73
2023/12/30 02:52:00;;;;;;;23.02;13.77;;;;;;;;;;5114681;27;20039;-74
2023/12/30 02:54:29;;;;;;;22.48;12.55;;;;;;;;;;5132733;27;20051;-74
2023/12/30 02:56:56;;;;;;;24.67;13.32;;;;;;;;;;5132789;27;20545;-73
2023/12/30 02:59:23;;;;;;;18.10;11.40;;;;;;;;;;5132967;27;20183;-74
2023/12/30 03:01:50;;;;;;;19.70;11.27;;;;;;;;;;5132493;27;20051;-73
2023/12/30 03:04:16;;;;;;;18.77;10.50;;;;;;;;;;5114186;27;20495;-74
2023/12/30 03:06:43;;;;;;;17.05;10.55;;;;;;;;;;5132410;27;20044;-74
2023/12/30 03:09:10;;;;;;;17.92;9.35;;;;;;;;;;5132549;27;20078;-73
2023/12/30 03:11:37;;;;;;;19.67;10.18;;;;;;;;;;5132106;27;20062;-73
2023/12/30 03:14:04;;;;;;;15.02;9.52;;;;;;;;;;5132646;27;20051;-74
2023/12/30 03:16:31;;;;;;;15.77;9.75;;;;;;;;;;5132119;27;20043;-73
2023/12/30 03:18:58;;;;;;;13.57;8.75;;;;;;;;;;5132252;27;20047;-72
2023/12/30 03:21:25;;;;;;;16.38;9.98;;;;;;;;;;5132077;27;20070;-72
2023/12/30 03:23:52;;;;;;;15.65;8.70;;;;;;;;;;5132161;27;20053;-74
2023/12/30 03:26:19;;;;;;;17.52;11.23;;;;;;;;;;5132257;27;20046;-74
2023/12/30 03:28:45;;;;;;;16.75;10.70;;;;;;;;;;5132079;27;20043;-73
2023/12/30 03:31:27;;;;;;;16.73;10.13;;;;;;;;;;5132626;27;20047;-73
2023/12/30 03:33:55;;;;;;;18.30;10.20;;;;;;;;;;5132340;27;20643;-73
2023/12/30 03:36:22;;;;;;;18.63;11.45;;;;;;;;;;5132164;27;20523;-74
2023/12/30 03:38:51;;;;;;;17.08;10.30;;;;;;;;;;5131917;27;20047;-73
2023/12/30 03:41:18;;;;;;;19.02;10.07;;;;;;;;;;5131640;27;20132;-72
2023/12/30 03:43:45;;;;;;;16.02;9.65;;;;;;;;;;5131442;27;20051;-74
2023/12/30 03:46:12;;;;;;;17.13;10.10;;;;;;;;;;5131240;27;20079;-73
2023/12/30 03:48:39;;;;;;;16.92;9.93;;;;;;;;;;5131754;27;20069;-73
2023/12/30 03:51:06;;;;;;;16.48;9.77;;;;;;;;;;5132180;27;20054;-73
2023/12/30 03:53:33;;;;;;;16.10;8.93;;;;;;;;;;5131507;27;20047;-73
2023/12/30 03:56:00;;;;;;;14.73;9.27;;;;;;;;;;5131801;27;20039;-73
2023/12/30 03:58:27;;;;;;;15.13;8.88;;;;;;;;;;5131292;27;20498;-73
2023/12/30 04:00:54;;;;;;;15.95;9.38;;;;;;;;;;5130715;27;20051;-73
2023/12/30 04:03:21;;;;;;;15.13;8.60;;;;;;;;;;5133204;27;20063;-73
2023/12/30 04:05:48;;;;;;;13.90;8.60;;;;;;;;;;5131601;27;20047;-72
2023/12/30 04:08:15;;;;;;;13.07;7.88;;;;;;;;;;5131677;27;20046;-73
2023/12/30 04:10:41;;;;;;;14.75;8.90;;;;;;;;;;5131115;27;20049;-74
2023/12/30 04:13:09;;;;;;;17.30;8.60;;;;;;;;;;5131342;27;20075;-73
2023/12/30 04:15:37;;;;;;;14.13;8.82;;;;;;;;;;5130879;27;20039;-74
2023/12/30 04:18:04;;;;;;;14.32;8.55;;;;;;;;;;5130990;27;20052;-73
2023/12/30 04:20:31;;;;;;;15.95;9.52;;;;;;;;;;5131001;27;20546;-74
2023/12/30 04:22:58;;;;;;;15.55;9.30;;;;;;;;;;5130877;27;20043;-74
2023/12/30 04:25:25;;;;;;;14.63;8.05;;;;;;;;;;5130885;27;20044;-72
2023/12/30 04:27:52;;;;;;;14.13;8.32;;;;;;;;;;5131146;27;20610;-73
2023/12/30 04:30:18;;;;;;;15.40;8.40;;;;;;;;;;5130969;27;20134;-73
2023/12/30 04:32:45;;;;;;;16.88;9.20;;;;;;;;;;5130604;27;20518;-73
2023/12/30 04:35:12;;;;;;;13.38;8.20;;;;;;;;;;5130923;27;20051;-73
2023/12/30 04:37:39;;;;;;;17.88;9.70;;;;;;;;;;5130603;27;20047;-73
2023/12/30 04:40:06;;;;;;;15.15;9.00;;;;;;;;;;5130685;27;20047;-74
2023/12/30 04:42:33;;;;;;;14.93;8.40;;;;;;;;;;5130456;27;20043;-73
2023/12/30 04:45:00;;;;;;;15.88;9.75;;;;;;;;;;5130492;27;20683;-73
2023/12/30 04:47:27;;;;;;;14.18;9.27;;;;;;;;;;5130504;27;20474;-72
2023/12/30 04:49:53;;;;;;;20.70;12.00;;;;;;;;;;5130857;27;20055;-73
2023/12/30 04:52:20;;;;;;;18.70;9.85;;;;;;;;;;5130388;27;20085;-73
2023/12/30 04:54:50;;;;;;;17.83;10.73;;;;;;;;;;5130500;27;20050;-73
2023/12/30 04:57:19;;;;;;;20.50;11.82;;;;;;;;;;5130331;27;20043;-74
2023/12/30 04:59:46;;;;;;;20.23;12.48;;;;;;;;;;5130618;27;20054;-73
2023/12/30 05:02:13;;;;;;;20.27;11.60;;;;;;;;;;5130277;27;20060;-73
2023/12/30 05:04:42;;;;;;;23.42;12.73;;;;;;;;;;5130602;27;20055;-73
2023/12/30 05:07:09;;;;;;;23.33;12.93;;;;;;;;;;5132052;27;20492;-74
2023/12/30 05:09:36;;;;;;;23.52;13.50;;;;;;;;;;5130021;27;20035;-74
2023/12/30 05:12:03;;;;;;;23.42;12.70;;;;;;;;;;5130054;27;20058;-73
2023/12/30 05:14:30;;;;;;;26.17;15.38;;;;;;;;;;5129664;27;20411;-72
2023/12/30 05:16:56;;;;;;;25.33;13.88;;;;;;;;;;5130429;27;20050;-74
2023/12/30 05:19:23;;;;;;;22.50;12.70;;;;;;;;;;5130473;27;20053;-74
2023/12/30 05:21:53;;;;;;;23.08;12.90;;;;;;;;;;5130269;27;20441;-74
2023/12/30 05:24:20;;;;;;;22.85;13.43;;;;;;;;;;5129781;27;20055;-75
2023/12/30 05:26:47;;;;;;;25.67;15.10;;;;;;;;;;5129910;28;20460;-72
2023/12/30 05:29:13;;;;;;;19.85;11.98;;;;;;;;;;5129984;28;20499;-73
2023/12/30 05:31:40;;;;;;;18.95;11.45;;;;;;;;;;5111757;28;20616;-73
2023/12/30 05:34:08;;;;;;;24.23;13.52;;;;;;;;;;5130168;28;20103;-73
2023/12/30 05:36:38;;;;;;;19.98;12.55;;;;;;;;;;5130007;28;20035;-73
2023/12/30 05:39:05;;;;;;;25.53;13.63;;;;;;;;;;5130161;28;20047;-74
2023/12/30 05:41:32;;;;;;;22.65;13.45;;;;;;;;;;5111401;28;20134;-74
2023/12/30 05:43:58;;;;;;;18.33;11.20;;;;;;;;;;5129173;28;20542;-73
2023/12/30 05:46:26;;;;;;;19.60;11.70;;;;;;;;;;5129918;28;20112;-76
2023/12/30 05:48:53;;;;;;;26.58;14.40;;;;;;;;;;5130073;28;20055;-73
2023/12/30 05:51:20;;;;;;;21.23;12.27;;;;;;;;;;5130054;28;20043;-73
2023/12/30 05:53:50;;;;;;;21.45;11.38;;;;;;;;;;5129680;28;20044;-73
2023/12/30 05:56:23;;;;;;;20.80;12.18;;;;;;;;;;5130208;28;20043;-72
2023/12/30 05:58:52;;;;;;;18.30;10.85;;;;;;;;;;5130077;28;20047;-72
2023/12/30 06:01:19;;;;;;;20.05;11.00;;;;;;;;;;5129589;28;20051;-73
2023/12/30 06:03:46;;;;;;;20.33;11.20;;;;;;;;;;5129310;28;20645;-72
2023/12/30 06:06:13;;;;;;;20.48;11.27;;;;;;;;;;5129698;28;20638;-71
2023/12/30 06:08:40;;;;;;;19.35;11.23;;;;;;;;;;5130063;27;20244;-73
2023/12/30 06:11:07;;;;;;;18.60;10.05;;;;;;;;;;5129840;28;20054;-73
2023/12/30 06:13:34;;;;;;;19.13;11.35;;;;;;;;;;5129273;28;20043;-74
2023/12/30 06:16:01;;;;;;;17.70;10.70;;;;;;;;;;5129518;28;20043;-73
2023/12/30 06:18:30;;;;;;;18.10;10.35;;;;;;;;;;5129558;28;20039;-73
2023/12/30 06:20:58;;;;;;;17.85;10.70;;;;;;;;;;5129276;28;20054;-72
2023/12/30 06:23:28;;;;;;;18.48;11.27;;;;;;;;;;5130895;27;20146;-72
2023/12/30 06:25:55;;;;;;;19.40;11.13;;;;;;;;;;5133078;27;20530;-75
2023/12/30 06:28:24;;;;;;;18.27;10.00;;;;;;;;;;5133463;27;20281;-73
2023/12/30 06:30:51;;;;;;;18.10;10.02;;;;;;;;;;5133628;27;20058;-74
2023/12/30 06:33:21;;;;;;;15.93;9.95;;;;;;;;;;5133388;27;20051;-73
2023/12/30 06:35:48;;;;;;;;;;;;;;;;;;5134008;27;20066;-73
2023/12/30 06:38:15;;;;;;;13.57;8.25;;;;;;;;;;5133028;27;19972;-72
2023/12/30 06:40:42;;;;;;;16.17;9.52;;;;;;;;;;5132858;27;20092;-73
2023/12/30 06:43:09;;;;;;;16.23;9.20;;;;;;;;;;5132947;27;20058;-73
2023/12/30 06:45:36;;;;;;;16.55;9.63;;;;;;;;;;5133088;27;20047;-74
2023/12/30 06:48:03;;;;;;;15.50;9.43;;;;;;;;;;5132711;27;20531;-72
2023/12/30 06:50:30;;;;;;;14.75;9.25;;;;;;;;;;5133295;27;20055;-74
2023/12/30 06:53:00;;;;;;;17.38;9.20;;;;;;;;;;5132842;27;20050;-73
2023/12/30 06:55:28;;;;;;;15.75;9.18;;;;;;;;;;5132869;27;20053;-75
2023/12/30 06:58:08;;;;;;;18.15;9.93;;;;;;;;;;5132916;27;20039;-75
2023/12/30 07:00:35;;;;;;;16.83;9.73;;;;;;;;;;5132763;27;20074;-75
2023/12/30 07:03:02;;;;;;;16.65;10.13;;;;;;;;;;5132600;27;20491;-74
2023/12/30 07:05:35;;;;;;;17.38;9.45;;;;;;;;;;5132601;27;20128;-75
2023/12/30 07:08:02;;;;;;;15.20;9.25;;;;;;;;;;5132637;27;20044;-75
2023/12/30 07:10:29;;;;;;;17.67;9.07;;;;;;;;;;5132364;27;20087;-76
2023/12/30 07:12:56;;;;;;;17.45;9.82;;;;;;;;;;5132165;27;20043;-74
2023/12/30 07:15:22;;;;;;;16.77;9.45;;;;;;;;;;5131931;27;20047;-73
2023/12/30 07:17:49;;;;;;;14.98;8.88;;;;;;;;;;5132340;27;20730;-74
2023/12/30 07:20:16;;;;;;;19.25;9.02;;;;;;;;;;5132577;27;20067;-72
2023/12/30 07:22:43;;;;;;;15.73;9.63;;;;;;;;;;5132162;27;20081;-73
2023/12/30 07:25:10;;;;;;;16.13;9.30;;;;;;;;;;5132174;27;20066;-74
2023/12/30 07:27:37;;;;;;;15.70;9.02;;;;;;;;;;5132033;27;20048;-75
2023/12/30 07:30:05;;;;;;;14.80;8.45;;;;;;;;;;5132080;27;20134;-75
2023/12/30 07:32:32;;;;;;;20.27;10.98;;;;;;;;;;5132211;27;20047;-75
2023/12/30 07:34:59;;;;;;;17.17;9.95;;;;;;;;;;5131856;27;20142;-75
2023/12/30 07:37:27;;;;;;;16.67;9.38;;;;;;;;;;5131961;27;20043;-75
2023/12/30 07:39:54;;;;;;;14.05;9.02;;;;;;;;;;5131833;27;20135;-75
2023/12/30 07:42:21;;;;;;;14.93;9.15;;;;;;;;;;5132133;27;20050;-75
2023/12/30 07:44:51;;;;;;;13.00;8.35;;;;;;;;;;5131656;27;20043;-75
2023/12/30 07:47:17;;;;;;;14.40;8.82;;;;;;;;;;5131471;27;20049;-74
2023/12/30 07:49:45;;;;;;;16.65;9.15;;;;;;;;;;5131616;27;20053;-75
2023/12/30 07:52:12;;;;;;;19.83;10.52;;;;;;;;;;5131643;27;20491;-75
2023/12/30 07:54:38;;;;;;;19.08;11.32;;;;;;;;;;5131364;27;20047;-75
2023/12/30 07:57:05;;;;;;;19.25;10.77;;;;;;;;;;5132045;27;20043;-75
2023/12/30 07:59:32;;;;;;;21.83;11.60;;;;;;;;;;5131509;27;20056;-74
2023/12/30 08:01:58;;;;;;;18.70;10.27;;;;;;;;;;5131684;27;20054;-74
2023/12/30 08:04:25;;;;;;;17.48;11.13;;;;;;;;;;5131336;27;20047;-76
2023/12/30 08:06:53;;;;;;;18.40;10.18;;;;;;;;;;5132810;27;20100;-76
2023/12/30 08:09:20;;;;;;;17.60;9.45;;;;;;;;;;5131058;27;20138;-75
2023/12/30 08:11:47;;;;;;;15.82;8.98;;;;;;;;;;5131441;27;20050;-76
2023/12/30 08:14:27;;;;;;;21.52;9.68;;;;;;;;;;5130877;27;20043;-76
2023/12/30 08:16:54;;;;;;;16.33;9.70;;;;;;;;;;5131339;27;20067;-77
2023/12/30 08:19:20;;;;;;;14.93;8.75;;;;;;;;;;5131218;27;20525;-75
2023/12/30 08:21:47;;;;;;;17.10;9.70;;;;;;;;;;5123960;27;20049;-76
2023/12/30 08:24:16;;;;;;;16.17;9.43;;;;;;;;;;5114346;27;20076;-76
2023/12/30 08:26:43;;;;;;;18.40;9.32;;;;;;;;;;5129324;27;20086;-76
2023/12/30 08:29:10;;;;;;;15.05;9.50;;;;;;;;;;5127613;27;20427;-76
2023/12/30 08:31:37;;;;;;;14.20;8.82;;;;;;;;;;5110865;28;20050;-77
2023/12/30 08:34:04;;;;;;;15.20;8.52;;;;;;;;;;5111342;28;20082;-75
2023/12/30 08:36:31;;;;;;;18.60;9.95;;;;;;;;;;5111568;28;20043;-72
2023/12/30 08:38:57;;;;;;;15.52;9.30;;;;;;;;;;5130915;27;20073;-71
2023/12/30 08:41:27;;;;;;;16.58;9.27;;;;;;;;;;5142515;27;20046;-77
2023/12/30 08:43:57;;;;;;;17.05;9.32;;;;;;;;;;5140682;27;20441;-79
2023/12/30 08:46:24;;;;;;;13.45;7.88;;;;;;;;;;5141008;27;20051;-78
2023/12/30 08:48:53;;;;;;;13.48;7.57;;;;;;;;;;5142030;27;20038;-76
2023/12/30 08:51:22;;;;;;;13.45;8.20;;;;;;;;;;5124678;27;20080;-75
2023/12/30 08:53:49;;;;;;;15.88;8.63;;;;;;;;;;5123772;27;20046;-75
2023/12/30 08:56:15;;;;;;;15.63;8.52;;;;;;;;;;5142143;27;20043;-74
2023/12/30 08:58:42;;;;;;;12.90;7.53;;;;;;;;;;5141982;27;20091;-75
2023/12/30 09:01:09;;;;;;;11.05;6.85;;;;;;;;;;5142027;27;20043;-75
2023/12/30 09:03:37;;;;;;;12.48;7.43;;;;;;;;;;5141967;27;20050;-76
2023/12/30 09:06:03;;;;;;;13.27;8.30;;;;;;;;;;5141716;27;20291;-75
2023/12/30 09:08:30;;;;;;;12.30;6.93;;;;;;;;;;5141338;27;20075;-75
2023/12/30 09:10:58;;;;;;;10.90;6.95;;;;;;;;;;5138610;27;20126;-75
2023/12/30 09:13:25;;;;;;;16.38;8.55;;;;;;;;;;5138890;27;20058;-77
2023/12/30 09:15:52;;;;;;;14.60;8.40;;;;;;;;;;5140785;27;20043;-76
2023/12/30 09:18:18;;;;;;;16.52;9.10;;;;;;;;;;5140883;27;20043;-75
2023/12/30 09:20:45;;;;;;;14.45;8.05;;;;;;;;;;5126398;27;20047;-72
2023/12/30 09:23:12;;;;;;;14.73;8.75;;;;;;;;;;5138179;27;20077;-72
2023/12/30 09:25:39;;;;;;;29.98;9.02;;;;;;;;;;5120893;28;20059;-73
2023/12/30 09:28:06;;;;;;;15.15;8.32;;;;;;;;;;5129656;28;20043;-72
2023/12/30 09:30:32;;;;;;;13.10;7.97;;;;;;;;;;5141973;28;20046;-72
2023/12/30 09:32:59;;;;;;;12.13;7.47;;;;;;;;;;5141654;28;20047;-73
2023/12/30 09:35:27;;;;;;;11.05;7.05;;;;;;;;;;5141370;28;20327;-73
2023/12/30 09:37:54;;;;;;;15.52;8.15;;;;;;;;;;5121499;28;20047;-73
2023/12/30 09:40:21;;;;;;;15.70;8.98;;;;;;;;;;5122718;28;20111;-72
2023/12/30 09:42:50;;;;;;;15.07;8.40;;;;;;;;;;5141854;28;20085;-72
2023/12/30 09:45:18;;;;;;;16.03;8.60;;;;;;;;;;5135892;27;20040;-73
2023/12/30 09:47:45;;;;;;;15.85;8.75;;;;;;;;;;5129501;28;20289;-72
2023/12/30 09:50:13;;;;;;;15.10;8.63;;;;;;;;;;5119035;28;20221;-74
2023/12/30 09:52:39;;;;;;;17.02;8.82;;;;;;;;;;5120596;28;20084;-77
2023/12/30 09:55:07;;;;;;;16.83;9.32;;;;;;;;;;5135949;28;20066;-75
2023/12/30 09:57:34;;;;;;;14.30;8.55;;;;;;;;;;5141979;27;20075;-84
2023/12/30 10:00:02;;;;;;;17.92;10.18;;;;;;;;;;5143172;27;20110;-74
2023/12/30 10:02:30;;;;;;;17.73;9.73;;;;;;;;;;5137152;27;20075;-72
2023/12/30 10:04:57;;;;;;;15.68;9.02;;;;;;;;;;5124663;28;20115;-72
2023/12/30 10:07:24;;;;;;;22.13;8.95;;;;;;;;;;5125026;28;20043;-73
2023/12/30 10:09:51;;;;;;;15.57;9.05;;;;;;;;;;5125035;28;20051;-76
2023/12/30 10:12:18;;;;;;;16.58;9.30;;;;;;;;;;5106609;28;20105;-75
2023/12/30 10:14:45;;;;;;;15.35;9.65;;;;;;;;;;5124819;27;20320;-77
2023/12/30 10:17:15;;;;;;;14.68;8.48;;;;;;;;;;5133755;27;20328;-78
2023/12/30 10:19:42;;;;;;;15.13;8.77;;;;;;;;;;5132986;27;20102;-79
2023/12/30 10:22:08;;;;;;;15.90;9.18;;;;;;;;;;5143588;27;20077;-79
2023/12/30 10:24:35;;;;;;;19.60;9.70;;;;;;;;;;5128661;27;20062;-78
2023/12/30 10:27:04;;;;;;;17.42;10.05;;;;;;;;;;5121594;28;20111;-78
2023/12/30 10:29:31;;;;;;;20.65;10.90;;;;;;;;;;5103100;28;20051;-78
2023/12/30 10:32:20;;;;;;;19.17;10.18;;;;;;;;;;5127760;27;20335;-77
2023/12/30 10:34:47;;;;;;;18.15;9.98;;;;;;;;;;5137380;27;20039;-78
2023/12/30 10:37:16;;;;;;;19.05;11.02;;;;;;;;;;5120550;27;20050;-79
2023/12/30 10:39:45;;;;;;;21.85;10.30;;;;;;;;;;5140476;27;20039;-79
2023/12/30 10:42:13;;;;;;;14.77;9.48;;;;;;;;;;5126220;27;20043;-78
2023/12/30 10:44:39;;;;;;;18.42;10.43;;;;;;;;;;5125660;27;20336;-79
2023/12/30 10:47:08;;;;;;;15.68;9.85;;;;;;;;;;5144486;27;20043;-78
2023/12/30 10:49:40;;;;;;;16.10;8.77;;;;;;;;;;5144339;27;20039;-78
2023/12/30 10:52:12;;;;;;;14.02;8.18;;;;;;;;;;5144581;27;20125;-79
2023/12/30 10:54:44;;;;;;;17.50;10.43;;;;;;;;;;5144803;27;20081;-79
2023/12/30 10:57:16;;;;;;;13.63;8.45;;;;;;;;;;5144319;27;20080;-78
2023/12/30 10:59:44;;;;;;;15.80;8.70;;;;;;;;;;5144875;27;20074;-79
2023/12/30 11:02:11;;;;;;;16.40;9.00;;;;;;;;;;5144324;27;20277;-79
2023/12/30 11:04:38;;;;;;;11.15;7.30;;;;;;;;;;5144698;27;20064;-83
2023/12/30 11:07:10;;;;;;;11.85;7.50;;;;;;;;;;5134453;27;20605;-79
2023/12/30 11:09:37;;;;;;;10.68;6.78;;;;;;;;;;5142327;27;20047;-78
2023/12/30 11:12:05;;;;;;;10.65;6.15;;;;;;;;;;5134722;27;20134;-81
2023/12/30 11:14:35;;;;;;;13.15;6.43;;;;;;;;;;5137074;27;20668;-80
2023/12/30 11:17:02;;;;;;;10.63;6.73;;;;;;;;;;5141226;27;20106;-78
2023/12/30 11:19:34;;;;;;;11.10;5.95;;;;;;;;;;5142400;27;20347;-78
2023/12/30 11:22:05;;;;;;;9.63;5.20;;;;;;;;;;5136908;27;20044;-79
2023/12/30 11:24:33;;;;;;;10.57;7.38;;;;;;;;;;5115983;27;20468;-76
2023/12/30 11:27:00;;;;;;;10.20;6.35;;;;;;;;;;5121313;27;20047;-78
2023/12/30 11:29:28;;;;;;;9.00;5.50;;;;;;;;;;5135170;27;20125;-80
2023/12/30 11:31:57;;;;;;;6.85;4.45;;;;;;;;;;5144274;27;20051;-78
2023/12/30 11:34:24;;;;;;;7.25;4.97;;;;;;;;;;5137146;27;20095;-79
2023/12/30 11:36:53;;;;;;;8.95;5.85;;;;;;;;;;5137535;27;20130;-75
2023/12/30 11:39:28;;;;;;;9.52;5.82;;;;;;;;;;5138050;27;20070;-75
2023/12/30 11:41:57;;;;;;;6.60;4.72;;;;;;;;;;5133821;27;20047;-75
2023/12/30 11:44:27;;;;;;;6.70;4.45;;;;;;;;;;5142549;27;20047;-75
2023/12/30 11:46:54;;;;;;;6.97;4.43;;;;;;;;;;5140027;27;20408;-75
2023/12/30 11:49:22;;;;;;;6.78;4.95;;;;;;;;;;5139667;27;20080;-73
2023/12/30 11:51:50;;;;;;;8.13;4.70;;;;;;;;;;5143135;27;20110;-75
2023/12/30 11:54:17;;;;;;;6.18;4.55;;;;;;;;;;5143614;27;20049;-76
2023/12/30 11:56:47;;;;;;;5.45;3.97;;;;;;;;;;5143443;27;20110;-76
2023/12/30 11:59:14;;;;;;;5.65;3.80;;;;;;;;;;5143760;27;20051;-75
2023/12/30 12:01:41;;;;;;;6.05;3.30;;;;;;;;;;5143715;27;20043;-73
2023/12/30 12:04:09;;;;;;;6.15;3.72;;;;;;;;;;5141591;27;20080;-73
2023/12/30 12:06:37;;;;;;;4.50;3.50;;;;;;;;;;5134110;27;20049;-72
2023/12/30 12:09:05;;;;;;;19.63;3.70;;;;;;;;;;5113528;27;20043;-73
2023/12/30 12:11:32;;;;;;;4.15;3.30;;;;;;;;;;5135179;27;20054;-73
2023/12/30 12:13:59;;;;;;;4.93;3.30;;;;;;;;;;5131716;27;20179;-73
2023/12/30 12:16:27;;;;;;;5.38;2.83;;;;;;;;;;5132039;27;20042;-73
2023/12/30 12:18:54;;;;;;;5.95;3.42;;;;;;;;;;5137238;27;20321;-73
2023/12/30 12:21:24;;;;;;;6.07;3.47;;;;;;;;;;5141087;27;20126;-73
2023/12/30 12:23:53;;;;;;;4.97;3.03;;;;;;;;;;5142063;27;20047;-73
2023/12/30 12:26:22;;;;;;;4.28;2.60;;;;;;;;;;5141741;27;20331;-73
2023/12/30 12:28:52;;;;;;;3.00;2.13;;;;;;;;;;5139127;27;20109;-73
2023/12/30 12:31:19;;;;;;;3.17;1.95;;;;;;;;;;5133001;27;20043;-73
2023/12/30 12:33:45;;;;;;;3.75;1.90;;;;;;;;;;5130773;27;20624;-73
2023/12/30 12:36:17;;;;;;;3.35;2.10;;;;;;;;;;5128608;27;20526;-73
2023/12/30 12:38:44;;;;;;;4.47;2.35;;;;;;;;;;5129783;27;20057;-73
2023/12/30 12:41:12;;;;;;;6.32;3.30;;;;;;;;;;5129411;27;20549;-73
2023/12/30 12:43:41;;;;;;;5.05;2.42;;;;;;;;;;5129597;27;20047;-73
2023/12/30 12:46:08;;;;;;;4.32;2.55;;;;;;;;;;5129576;27;20047;-73
2023/12/30 12:48:37;;;;;;;3.97;2.80;;;;;;;;;;5129730;27;20055;-73
2023/12/30 12:51:04;;;;;;;3.63;2.40;;;;;;;;;;5111008;27;20493;-73
2023/12/30 12:53:31;;;;;;;4.07;2.47;;;;;;;;;;5129993;27;20057;-73
2023/12/30 12:55:58;;;;;;;3.95;2.63;;;;;;;;;;5130700;27;20065;-73
2023/12/30 12:58:24;;;;;;;3.58;2.40;;;;;;;;;;5130478;27;20524;-73
2023/12/30 13:00:51;;;;;;;3.83;2.63;;;;;;;;;;5130775;27;20120;-73
2023/12/30 13:03:18;;;;;;;3.17;2.13;;;;;;;;;;5130794;27;20047;-73
2023/12/30 13:05:46;;;;;;;4.03;2.38;;;;;;;;;;5130304;27;20108;-73
2023/12/30 13:08:13;;;;;;;3.45;2.35;;;;;;;;;;5130495;27;20122;-73
2023/12/30 13:10:48;;;;;;;6.75;3.10;;;;;;;;;;5130307;27;20047;-73
2023/12/30 13:13:15;;;;;;;4.82;2.95;;;;;;;;;;5130484;27;20047;-70
2023/12/30 13:15:42;;;;;;;3.72;2.53;;;;;;;;;;5130293;27;20050;-70
2023/12/30 13:18:12;;;;;;;4.38;2.95;;;;;;;;;;5130236;27;20039;-70
2023/12/30 13:20:39;;;;;;;4.75;3.10;;;;;;;;;;5130221;27;20043;-70
2023/12/30 13:23:10;;;;;;;3.25;2.40;;;;;;;;;;5130087;27;20124;-70
2023/12/30 13:25:37;;;;;;;3.70;2.45;;;;;;;;;;5129706;27;20051;-70
2023/12/30 13:28:06;;;;;;;3.70;2.38;;;;;;;;;;5129630;27;20039;-70
2023/12/30 13:30:33;;;;;;;3.78;2.63;;;;;;;;;;5130032;28;20515;-69
2023/12/30 13:33:03;;;;;;;4.80;2.80;;;;;;;;;;5134900;27;20072;-71
2023/12/30 13:35:38;;;;;;;4.43;2.58;;;;;;;;;;5136744;27;20426;-69
2023/12/30 13:38:15;;;;;;;3.78;2.55;;;;;;;;;;5118596;27;20047;-71
2023/12/30 13:40:43;;;;;;;3.47;2.40;;;;;;;;;;5136841;27;20043;-70
2023/12/30 13:43:10;;;;;;;3.28;2.50;;;;;;;;;;5136544;27;20446;-71
2023/12/30 13:45:46;;;;;;;4.20;2.88;;;;;;;;;;5136182;27;20096;-71
2023/12/30 13:50:54;;;;;;;4.13;2.70;;;;;;;;;;5134538;27;20495;-69
2023/12/30 13:53:24;;;;;;;4.38;2.58;;;;;;;;;;5126548;27;20491;-70
2023/12/30 13:55:57;;;;;;;4.43;2.45;;;;;;;;;;5127374;27;20093;-70
2023/12/30 13:58:24;;;;;;;4.57;2.67;;;;;;;;;;5115985;28;20043;-70
2023/12/30 14:00:51;;;;;;;6.35;2.42;;;;;;;;;;5131176;27;20078;-70
2023/12/30 14:03:18;;;;;;;4.32;2.05;;;;;;;;;;5141597;27;20043;-70
2023/12/30 14:05:47;;;;;;;5.38;2.13;;;;;;;;;;5135624;27;20039;-70
2023/12/30 14:10:54;;;;;;;3.05;2.00;;;;;;;;;;5136544;27;20065;-69
2023/12/30 14:13:22;;;;;;;3.70;2.22;;;;;;;;;;5136269;27;20046;-69
2023/12/30 14:15:51;;;;;;;4.00;2.20;;;;;;;;;;5136259;27;20049;-70
2023/12/30 14:18:18;;;;;;;3.30;1.83;;;;;;;;;;5136192;27;20077;-70
2023/12/30 14:20:47;;;;;;;3.92;2.33;;;;;;;;;;5118626;27;20047;-70
2023/12/30 14:23:14;;;;;;;2.80;1.73;;;;;;;;;;5136204;27;20611;-70
2023/12/30 14:25:41;;;;;;;2.45;1.75;;;;;;;;;;5136347;27;20154;-70
2023/12/30 14:28:09;;;;;;;5.60;1.90;;;;;;;;;;5136743;27;20111;-70
2023/12/30 14:30:36;;;;;;;2.67;1.60;;;;;;;;;;5136960;27;20070;-70
2023/12/30 14:33:05;;;;;;;3.30;1.40;;;;;;;;;;5136707;27;20108;-70
2023/12/30 14:35:32;;;;;;;2.88;1.77;;;;;;;;;;5136405;27;20078;-70
2023/12/30 14:38:01;;;;;;;3.05;1.50;;;;;;;;;;5136007;27;20047;-70